Time;durP1;ratioP1;P1;durP2;ratioP2;P2;SDS_P1;SDS_P2;PMS_P1;PMS_P2;Temp;Humidity;BMP_temperature;BMP_pressure;BME280_temperature;BME280_humidity;BME280_pressure;Samples;Min_cycle;Max_cycle;Signal;HPM_P1;HPM_P2
2023/09/28 00:02:47;;;;;;;13.18;12.07;;;;;;;;;;4982700;28;20312;-88
2023/09/28 00:05:15;;;;;;;12.88;11.88;;;;;;;;;;4975070;28;20237;-88
2023/09/28 00:07:41;;;;;;;12.38;11.27;;;;;;;;;;4977225;28;20702;-88
2023/09/28 00:10:12;;;;;;;11.88;10.77;;;;;;;;;;4965866;28;20273;-89
2023/09/28 00:12:50;;;;;;;11.90;10.90;;;;;;;;;;4993263;28;20224;-87
2023/09/28 00:15:16;;;;;;;11.70;10.73;;;;;;;;;;4991309;28;20229;-88
2023/09/28 00:17:41;;;;;;;12.13;11.23;;;;;;;;;;4978131;28;20304;-88
2023/09/28 00:20:17;;;;;;;12.38;11.40;;;;;;;;;;4980766;28;20225;-89
2023/09/28 00:22:46;;;;;;;13.07;11.80;;;;;;;;;;4957272;28;20224;-90
2023/09/28 00:25:12;;;;;;;13.00;11.65;;;;;;;;;;4972494;28;20209;-90
2023/09/28 00:27:44;;;;;;;12.55;11.45;;;;;;;;;;4976092;28;20253;-90
2023/09/28 00:30:12;;;;;;;12.73;11.63;;;;;;;;;;4969028;28;20220;-90
2023/09/28 00:32:38;;;;;;;13.98;12.70;;;;;;;;;;4964101;28;20618;-89
2023/09/28 00:35:07;;;;;;;12.50;11.45;;;;;;;;;;4990890;28;20217;-88
2023/09/28 00:37:32;;;;;;;12.73;11.43;;;;;;;;;;4958884;28;20766;-91
2023/09/28 00:39:58;;;;;;;12.95;11.68;;;;;;;;;;4976651;28;20225;-90
2023/09/28 00:42:30;;;;;;;13.23;12.13;;;;;;;;;;4957657;28;20216;-89
2023/09/28 00:44:56;;;;;;;12.35;11.27;;;;;;;;;;4976682;28;20233;-88
2023/09/28 00:47:24;;;;;;;14.07;12.20;;;;;;;;;;4960158;28;20255;-89
2023/09/28 00:49:54;;;;;;;13.05;11.85;;;;;;;;;;4949719;28;20229;-88
2023/09/28 00:52:20;;;;;;;13.02;11.82;;;;;;;;;;4966718;28;20225;-88
2023/09/28 00:54:47;;;;;;;12.90;11.43;;;;;;;;;;4985001;28;20225;-87
2023/09/28 00:57:13;;;;;;;13.27;11.88;;;;;;;;;;4977508;28;20225;-88
2023/09/28 00:59:39;;;;;;;13.93;12.65;;;;;;;;;;4976951;28;20224;-89
2023/09/28 01:02:08;;;;;;;13.02;11.90;;;;;;;;;;4982758;28;20267;-89
2023/09/28 01:04:35;;;;;;;13.70;12.50;;;;;;;;;;4978600;28;20241;-89
2023/09/28 01:07:06;;;;;;;13.23;12.02;;;;;;;;;;4976791;28;20222;-89
2023/09/28 01:09:32;;;;;;;14.13;12.85;;;;;;;;;;4976406;28;20622;-89
2023/09/28 01:11:59;;;;;;;13.70;12.60;;;;;;;;;;4963380;28;20247;-90
2023/09/28 01:14:25;;;;;;;13.30;12.00;;;;;;;;;;4975024;28;20221;-88
2023/09/28 01:16:50;;;;;;;12.80;11.73;;;;;;;;;;4987169;28;20240;-88
2023/09/28 01:19:16;;;;;;;14.23;13.02;;;;;;;;;;4952823;28;20625;-90
2023/09/28 01:21:43;;;;;;;14.80;13.30;;;;;;;;;;4978428;28;20267;-89
2023/09/28 01:24:08;;;;;;;14.25;12.85;;;;;;;;;;4962964;28;20707;-88
2023/09/28 01:26:36;;;;;;;15.52;13.35;;;;;;;;;;4960825;28;20248;-89
2023/09/28 01:29:03;;;;;;;15.55;14.20;;;;;;;;;;4961416;28;20213;-91
2023/09/28 01:31:32;;;;;;;15.77;14.50;;;;;;;;;;4995446;28;20245;-90
2023/09/28 01:34:00;;;;;;;16.88;14.75;;;;;;;;;;4980499;28;20221;-89
2023/09/28 01:36:26;;;;;;;17.35;15.52;;;;;;;;;;4981705;28;20204;-90
2023/09/28 01:38:57;;;;;;;15.98;14.57;;;;;;;;;;4970935;28;20728;-91
2023/09/28 01:41:23;;;;;;;17.25;15.73;;;;;;;;;;4960819;28;20239;-90
2023/09/28 01:43:48;;;;;;;16.88;15.48;;;;;;;;;;4979498;28;20221;-89
2023/09/28 01:46:14;;;;;;;17.38;15.98;;;;;;;;;;4961763;28;20275;-91
2023/09/28 01:48:42;;;;;;;16.85;15.32;;;;;;;;;;4981438;28;20226;-90
2023/09/28 01:51:08;;;;;;;17.17;15.73;;;;;;;;;;4965963;28;20219;-89
2023/09/28 01:53:33;;;;;;;16.88;15.27;;;;;;;;;;4976775;28;20221;-91
2023/09/28 01:56:02;;;;;;;15.45;13.90;;;;;;;;;;4951718;28;20599;-89
2023/09/28 01:58:29;;;;;;;14.95;13.43;;;;;;;;;;4993340;28;20216;-90
2023/09/28 02:00:57;;;;;;;14.55;13.25;;;;;;;;;;5006554;28;20209;-92
2023/09/28 02:03:26;;;;;;;15.13;13.82;;;;;;;;;;5004075;28;20253;-90
2023/09/28 02:05:52;;;;;;;15.15;13.80;;;;;;;;;;4999717;28;22492;-89
2023/09/28 02:08:23;;;;;;;15.32;13.75;;;;;;;;;;4980745;28;20220;-89
2023/09/28 02:10:48;;;;;;;15.05;13.77;;;;;;;;;;4986465;28;20229;-88
2023/09/28 02:13:14;;;;;;;15.02;13.68;;;;;;;;;;4957773;28;20216;-89
2023/09/28 02:15:46;;;;;;;15.30;13.90;;;;;;;;;;4989408;28;20366;-89
2023/09/28 02:18:13;;;;;;;13.60;12.43;;;;;;;;;;4962707;28;20220;-89
2023/09/28 02:20:39;;;;;;;14.82;13.35;;;;;;;;;;4977149;28;20312;-89
2023/09/28 02:23:07;;;;;;;15.45;14.10;;;;;;;;;;4981661;28;20217;-88
2023/09/28 02:25:35;;;;;;;13.15;12.05;;;;;;;;;;4975186;28;20260;-89
2023/09/28 02:28:01;;;;;;;15.23;13.65;;;;;;;;;;4962085;28;20209;-89
2023/09/28 02:30:26;;;;;;;15.02;13.60;;;;;;;;;;5012278;28;20201;-89
2023/09/28 02:32:57;;;;;;;14.25;13.02;;;;;;;;;;4980708;28;20277;-90
2023/09/28 02:35:23;;;;;;;14.80;13.60;;;;;;;;;;5002485;28;20239;-90
2023/09/28 02:37:51;;;;;;;14.32;13.00;;;;;;;;;;5003763;28;20215;-89
2023/09/28 02:40:19;;;;;;;13.98;12.77;;;;;;;;;;4997791;28;20204;-89
2023/09/28 02:42:48;;;;;;;14.48;12.75;;;;;;;;;;4989034;28;20265;-90
2023/09/28 02:45:13;;;;;;;13.95;12.65;;;;;;;;;;5021155;28;20208;-89
2023/09/28 02:47:48;;;;;;;14.13;12.90;;;;;;;;;;4984615;28;20221;-89
2023/09/28 02:50:16;;;;;;;13.07;11.98;;;;;;;;;;4980449;28;20244;-88
2023/09/28 02:52:43;;;;;;;13.80;12.63;;;;;;;;;;5009980;28;20229;-88
2023/09/28 02:55:10;;;;;;;13.63;12.48;;;;;;;;;;4973356;28;20225;-88
2023/09/28 02:57:36;;;;;;;14.75;12.95;;;;;;;;;;4987306;28;20229;-88
2023/09/28 03:00:12;;;;;;;13.85;12.65;;;;;;;;;;4963759;28;20235;-88
2023/09/28 03:02:40;;;;;;;13.88;12.60;;;;;;;;;;4982785;28;20717;-88
2023/09/28 03:05:07;;;;;;;13.82;12.68;;;;;;;;;;4970967;28;20637;-89
2023/09/28 03:07:39;;;;;;;14.88;13.20;;;;;;;;;;4981650;28;20224;-88
2023/09/28 03:10:06;;;;;;;14.52;13.30;;;;;;;;;;4991878;28;20235;-88
2023/09/28 03:12:32;;;;;;;16.52;14.73;;;;;;;;;;4980145;28;20730;-88
2023/09/28 03:14:57;;;;;;;14.48;13.32;;;;;;;;;;5002159;28;20216;-88
2023/09/28 03:17:23;;;;;;;14.88;13.68;;;;;;;;;;4964219;28;21128;-88
2023/09/28 03:19:49;;;;;;;14.23;13.10;;;;;;;;;;4981454;28;20229;-88
2023/09/28 03:22:17;;;;;;;15.35;14.05;;;;;;;;;;4981030;28;20229;-88
2023/09/28 03:24:42;;;;;;;15.82;14.43;;;;;;;;;;4964305;28;20236;-87
2023/09/28 03:27:08;;;;;;;15.82;14.52;;;;;;;;;;4969950;28;20220;-88
2023/09/28 03:29:36;;;;;;;15.32;13.93;;;;;;;;;;4982323;28;20648;-88
2023/09/28 03:32:02;;;;;;;14.77;13.57;;;;;;;;;;4988775;28;20213;-88
2023/09/28 03:34:29;;;;;;;14.65;13.45;;;;;;;;;;4960070;28;20222;-87
2023/09/28 03:36:55;;;;;;;14.27;12.88;;;;;;;;;;4981816;28;20315;-88
2023/09/28 03:39:21;;;;;;;15.90;14.48;;;;;;;;;;4955548;28;20213;-87
2023/09/28 03:41:46;;;;;;;16.20;13.10;;;;;;;;;;4978889;28;20288;-87
2023/09/28 03:44:12;;;;;;;14.10;13.00;;;;;;;;;;4970489;28;20262;-87
2023/09/28 03:46:37;;;;;;;15.07;13.88;;;;;;;;;;4988194;28;20228;-82
2023/09/28 03:49:07;;;;;;;15.82;14.38;;;;;;;;;;4991604;28;20240;-80
2023/09/28 03:51:38;;;;;;;14.55;13.27;;;;;;;;;;5013488;28;20614;-80
2023/09/28 03:54:03;;;;;;;13.85;12.65;;;;;;;;;;4999732;28;20327;-80
2023/09/28 03:56:29;;;;;;;16.20;13.15;;;;;;;;;;5007513;28;20221;-79
2023/09/28 03:58:54;;;;;;;15.02;13.57;;;;;;;;;;5010527;28;20228;-80
2023/09/28 04:05:07;;;;;;;14.60;13.30;;;;;;;;;;5010836;28;20236;-80
2023/09/28 04:07:33;;;;;;;14.10;13.00;;;;;;;;;;5007982;28;20229;-80
2023/09/28 04:09:59;;;;;;;13.80;12.60;;;;;;;;;;4997941;28;20225;-79
2023/09/28 04:12:24;;;;;;;15.40;14.00;;;;;;;;;;5026656;28;20252;-79
2023/09/28 04:14:50;;;;;;;14.95;13.65;;;;;;;;;;5000367;28;20233;-80
2023/09/28 04:17:18;;;;;;;14.93;13.73;;;;;;;;;;5009078;28;20224;-78
2023/09/28 04:19:43;;;;;;;13.40;12.20;;;;;;;;;;5009314;28;20229;-80
2023/09/28 04:22:09;;;;;;;13.63;12.52;;;;;;;;;;5011147;28;20237;-80
2023/09/28 04:24:37;;;;;;;13.32;12.30;;;;;;;;;;5009922;28;20235;-80
2023/09/28 04:27:02;;;;;;;13.20;12.05;;;;;;;;;;5015716;28;20212;-80
2023/09/28 04:29:28;;;;;;;13.77;12.68;;;;;;;;;;5000889;28;20228;-79
2023/09/28 04:31:54;;;;;;;13.35;12.15;;;;;;;;;;5025676;28;20237;-80
2023/09/28 04:34:20;;;;;;;12.98;11.88;;;;;;;;;;5000413;28;20220;-80
2023/09/28 04:36:54;;;;;;;15.13;13.57;;;;;;;;;;4985947;28;20221;-79
2023/09/28 04:39:23;;;;;;;13.43;12.32;;;;;;;;;;4995508;28;20225;-79
2023/09/28 04:41:49;;;;;;;12.93;11.93;;;;;;;;;;5013425;28;20618;-80
2023/09/28 04:44:17;;;;;;;14.02;12.57;;;;;;;;;;5010314;28;20678;-79
2023/09/28 04:46:42;;;;;;;14.82;13.45;;;;;;;;;;4993897;28;20236;-80
2023/09/28 04:49:11;;;;;;;12.68;11.57;;;;;;;;;;5017623;28;20550;-80
2023/09/28 04:51:39;;;;;;;13.20;12.00;;;;;;;;;;5000536;28;20241;-79
2023/09/28 04:54:05;;;;;;;12.52;11.40;;;;;;;;;;4995488;28;20225;-79
2023/09/28 04:56:34;;;;;;;11.90;10.85;;;;;;;;;;5007658;28;20717;-79
2023/09/28 04:59:04;;;;;;;12.15;11.15;;;;;;;;;;4998660;28;20980;-77
2023/09/28 05:01:32;;;;;;;13.40;11.85;;;;;;;;;;5012282;28;20248;-77
2023/09/28 05:03:59;;;;;;;14.80;11.70;;;;;;;;;;5013422;28;20228;-78
2023/09/28 05:06:24;;;;;;;11.90;10.90;;;;;;;;;;5005329;28;20316;-78
2023/09/28 05:08:50;;;;;;;12.07;10.98;;;;;;;;;;5002741;28;20216;-78
2023/09/28 05:11:18;;;;;;;12.63;11.43;;;;;;;;;;4996066;28;20236;-79
2023/09/28 05:13:43;;;;;;;11.82;10.73;;;;;;;;;;5010279;28;20225;-79
2023/09/28 05:16:23;;;;;;;13.02;11.77;;;;;;;;;;5007582;28;20580;-79
2023/09/28 05:18:49;;;;;;;11.07;10.18;;;;;;;;;;5021033;28;20234;-80
2023/09/28 05:21:14;;;;;;;12.13;11.02;;;;;;;;;;5022052;28;20444;-78
2023/09/28 05:23:42;;;;;;;12.77;11.57;;;;;;;;;;5003759;28;20698;-80
2023/09/28 05:26:10;;;;;;;14.13;11.55;;;;;;;;;;5013141;28;20245;-79
2023/09/28 05:28:36;;;;;;;12.55;11.30;;;;;;;;;;5022789;28;20224;-79
2023/09/28 05:31:03;;;;;;;12.85;11.75;;;;;;;;;;5022035;28;20227;-79
2023/09/28 05:33:29;;;;;;;11.93;10.90;;;;;;;;;;4989854;28;20229;-79
2023/09/28 05:35:57;;;;;;;12.05;10.85;;;;;;;;;;5021157;28;20228;-78
2023/09/28 05:38:26;;;;;;;11.65;10.68;;;;;;;;;;5005357;28;20282;-79
2023/09/28 05:40:52;;;;;;;11.70;10.65;;;;;;;;;;5005406;28;20686;-79
2023/09/28 05:43:17;;;;;;;11.27;10.38;;;;;;;;;;5008259;28;20304;-78
2023/09/28 05:45:45;;;;;;;11.23;10.38;;;;;;;;;;4978484;28;20230;-80
2023/09/28 05:48:11;;;;;;;11.38;10.32;;;;;;;;;;4963719;28;20279;-79
2023/09/28 05:50:38;;;;;;;13.85;12.35;;;;;;;;;;4986570;28;20236;-79
2023/09/28 05:53:04;;;;;;;12.57;11.52;;;;;;;;;;5000574;28;20293;-80
2023/09/28 05:55:29;;;;;;;11.75;10.68;;;;;;;;;;4984378;28;20611;-78
2023/09/28 05:58:08;;;;;;;11.85;10.85;;;;;;;;;;5001803;28;20232;-80
2023/09/28 06:00:38;;;;;;;12.23;11.23;;;;;;;;;;5023368;28;20225;-79
2023/09/28 06:03:04;;;;;;;11.90;11.00;;;;;;;;;;5003246;28;20621;-78
2023/09/28 06:05:29;;;;;;;11.50;10.43;;;;;;;;;;5018321;28;20232;-79
2023/09/28 06:07:55;;;;;;;10.35;9.45;;;;;;;;;;5004992;28;20220;-78
2023/09/28 06:10:21;;;;;;;10.55;9.73;;;;;;;;;;4978997;28;20689;-79
2023/09/28 06:12:46;;;;;;;11.02;10.13;;;;;;;;;;5012494;28;20247;-80
2023/09/28 06:15:12;;;;;;;10.63;9.63;;;;;;;;;;4981931;28;20216;-81
2023/09/28 06:17:38;;;;;;;10.77;9.88;;;;;;;;;;4997127;28;20229;-80
2023/09/28 06:20:06;;;;;;;9.40;8.60;;;;;;;;;;4992262;28;20315;-79
2023/09/28 06:22:31;;;;;;;10.43;9.38;;;;;;;;;;5003224;28;20224;-80
2023/09/28 06:24:57;;;;;;;12.30;11.10;;;;;;;;;;4988357;28;20247;-80
2023/09/28 06:27:28;;;;;;;12.85;11.25;;;;;;;;;;4979386;28;20213;-79
2023/09/28 06:29:53;;;;;;;13.98;10.75;;;;;;;;;;5005618;28;20626;-79
2023/09/28 06:32:24;;;;;;;11.48;10.38;;;;;;;;;;4993483;28;20229;-79
2023/09/28 06:34:52;;;;;;;12.68;10.00;;;;;;;;;;5020457;28;20233;-79
2023/09/28 06:37:18;;;;;;;11.48;10.30;;;;;;;;;;4977207;28;20216;-79
2023/09/28 06:39:46;;;;;;;10.80;9.85;;;;;;;;;;4991407;28;20220;-80
2023/09/28 06:42:11;;;;;;;10.68;9.45;;;;;;;;;;5007727;28;20216;-79
2023/09/28 06:44:37;;;;;;;10.75;9.02;;;;;;;;;;4988784;28;20231;-80
2023/09/28 06:47:03;;;;;;;10.60;9.65;;;;;;;;;;5023432;28;20256;-80
2023/09/28 06:49:28;;;;;;;10.38;9.02;;;;;;;;;;4987563;28;20232;-79
2023/09/28 06:51:54;;;;;;;10.68;9.82;;;;;;;;;;4973207;28;20299;-80
2023/09/28 06:54:22;;;;;;;10.10;9.20;;;;;;;;;;5004203;28;20225;-80
2023/09/28 06:56:49;;;;;;;9.80;8.85;;;;;;;;;;4984327;28;20291;-80
2023/09/28 06:59:15;;;;;;;10.20;9.25;;;;;;;;;;4995664;28;20604;-79
2023/09/28 07:01:41;;;;;;;9.88;8.98;;;;;;;;;;4986165;28;20312;-80
2023/09/28 07:04:09;;;;;;;9.63;8.82;;;;;;;;;;5006295;28;20663;-78
2023/09/28 07:06:34;;;;;;;9.30;8.40;;;;;;;;;;5004614;28;20239;-80
2023/09/28 07:09:00;;;;;;;9.90;9.07;;;;;;;;;;4970187;28;20225;-79
2023/09/28 07:11:28;;;;;;;25.88;22.38;;;;;;;;;;4975131;28;20674;-79
2023/09/28 07:13:56;;;;;;;12.75;11.07;;;;;;;;;;4987952;28;20303;-79
2023/09/28 07:16:25;;;;;;;12.85;10.00;;;;;;;;;;4976022;28;20267;-79
2023/09/28 07:18:50;;;;;;;9.68;8.93;;;;;;;;;;4999532;28;20236;-79
2023/09/28 07:21:19;;;;;;;9.13;8.25;;;;;;;;;;4976237;28;20225;-79
2023/09/28 07:23:46;;;;;;;10.63;9.68;;;;;;;;;;4982643;28;20240;-80
2023/09/28 07:26:17;;;;;;;10.32;9.35;;;;;;;;;;4994529;28;20217;-78
2023/09/28 07:28:43;;;;;;;10.15;8.98;;;;;;;;;;5009738;28;20233;-80
2023/09/28 07:31:12;;;;;;;10.90;7.95;;;;;;;;;;5001546;28;20706;-80
2023/09/28 07:33:41;;;;;;;9.98;8.23;;;;;;;;;;4977708;28;20263;-80
2023/09/28 07:36:09;;;;;;;9.90;7.60;;;;;;;;;;4998764;28;20753;-79
2023/09/28 07:38:34;;;;;;;8.82;7.45;;;;;;;;;;5002798;28;20229;-80
2023/09/28 07:41:02;;;;;;;8.07;7.38;;;;;;;;;;5005823;28;20722;-80
2023/09/28 07:43:29;;;;;;;11.90;7.35;;;;;;;;;;4986068;28;20348;-80
2023/09/28 07:45:57;;;;;;;10.10;7.78;;;;;;;;;;5004928;28;20225;-80
2023/09/28 07:48:25;;;;;;;8.02;7.05;;;;;;;;;;4978193;28;20492;-80
2023/09/28 07:50:50;;;;;;;8.35;6.68;;;;;;;;;;4993512;28;20355;-80
2023/09/28 07:53:16;;;;;;;7.10;6.20;;;;;;;;;;4978701;28;20271;-80
2023/09/28 07:55:41;;;;;;;6.97;6.38;;;;;;;;;;4991441;28;20217;-80
2023/09/28 07:58:09;;;;;;;10.55;6.93;;;;;;;;;;4995793;28;20225;-80
2023/09/28 08:00:35;;;;;;;8.20;5.97;;;;;;;;;;4986048;28;20231;-80
2023/09/28 08:03:00;;;;;;;6.82;5.65;;;;;;;;;;4986720;28;20636;-80
2023/09/28 08:05:28;;;;;;;7.45;6.35;;;;;;;;;;4999790;28;20304;-80
2023/09/28 08:07:56;;;;;;;6.45;5.85;;;;;;;;;;5005712;28;20372;-81
2023/09/28 08:10:22;;;;;;;6.05;5.57;;;;;;;;;;4986451;28;20256;-81
2023/09/28 08:12:48;;;;;;;5.20;4.80;;;;;;;;;;5004592;28;20650;-80
2023/09/28 08:15:15;;;;;;;6.00;5.22;;;;;;;;;;4977697;28;20213;-80
2023/09/28 08:17:47;;;;;;;5.57;5.15;;;;;;;;;;4990702;28;20252;-80
2023/09/28 08:20:15;;;;;;;7.85;5.72;;;;;;;;;;4974935;28;20611;-80
2023/09/28 08:22:43;;;;;;;5.97;5.47;;;;;;;;;;4975359;28;20249;-80
2023/09/28 08:25:10;;;;;;;5.20;4.70;;;;;;;;;;4993328;28;20225;-80
2023/09/28 08:27:36;;;;;;;5.47;4.97;;;;;;;;;;4981446;28;20225;-80
2023/09/28 08:30:04;;;;;;;5.35;4.57;;;;;;;;;;5025628;28;20223;-80
2023/09/28 08:32:32;;;;;;;5.22;4.80;;;;;;;;;;4984633;28;20314;-80
2023/09/28 08:35:00;;;;;;;5.00;4.60;;;;;;;;;;5004875;28;20310;-81
2023/09/28 08:37:25;;;;;;;5.00;4.50;;;;;;;;;;5014409;28;20220;-80
2023/09/28 08:39:51;;;;;;;4.75;4.35;;;;;;;;;;4996421;28;20232;-80
2023/09/28 08:42:22;;;;;;;7.07;4.03;;;;;;;;;;4964460;28;20237;-79
2023/09/28 08:44:48;;;;;;;4.22;3.83;;;;;;;;;;5007036;28;20315;-80
2023/09/28 08:47:16;;;;;;;3.88;3.58;;;;;;;;;;4976906;28;20217;-78
2023/09/28 08:49:47;;;;;;;4.40;4.00;;;;;;;;;;4977716;28;20317;-79
2023/09/28 08:52:15;;;;;;;3.80;3.50;;;;;;;;;;4990986;28;20232;-79
2023/09/28 08:54:41;;;;;;;6.47;3.45;;;;;;;;;;4997318;28;20655;-78
2023/09/28 08:57:08;;;;;;;3.33;3.13;;;;;;;;;;5003176;28;20264;-79
2023/09/28 08:59:34;;;;;;;3.85;3.50;;;;;;;;;;5009028;28;20725;-79
2023/09/28 09:02:03;;;;;;;3.67;3.20;;;;;;;;;;4976849;28;20764;-79
2023/09/28 09:04:34;;;;;;;3.85;3.45;;;;;;;;;;5010161;28;20605;-79
2023/09/28 09:07:07;;;;;;;3.58;3.13;;;;;;;;;;4980838;28;20240;-79
2023/09/28 09:09:35;;;;;;;4.45;3.45;;;;;;;;;;4970930;28;20239;-79
2023/09/28 09:12:01;;;;;;;9.23;3.25;;;;;;;;;;5003902;28;20224;-80
2023/09/28 09:14:27;;;;;;;3.55;3.25;;;;;;;;;;5003483;28;20225;-80
2023/09/28 09:16:53;;;;;;;4.47;3.53;;;;;;;;;;5009441;28;20287;-80
2023/09/28 09:19:23;;;;;;;7.15;3.40;;;;;;;;;;5013960;28;20224;-80
2023/09/28 09:21:50;;;;;;;3.55;3.25;;;;;;;;;;4989387;28;20697;-79
2023/09/28 09:24:19;;;;;;;5.30;3.60;;;;;;;;;;4995611;28;20280;-76
2023/09/28 09:26:47;;;;;;;3.38;3.00;;;;;;;;;;4994765;28;20319;-81
2023/09/28 09:29:14;;;;;;;3.70;3.40;;;;;;;;;;5002700;28;20236;-78
2023/09/28 09:31:44;;;;;;;4.97;3.08;;;;;;;;;;5011448;28;20584;-77
2023/09/28 09:34:13;;;;;;;3.50;3.20;;;;;;;;;;5004453;28;20706;-78
2023/09/28 09:36:41;;;;;;;4.60;3.05;;;;;;;;;;4993691;28;20236;-80
2023/09/28 09:39:10;;;;;;;4.72;3.22;;;;;;;;;;4981354;28;20296;-78
2023/09/28 09:41:44;;;;;;;4.55;3.60;;;;;;;;;;5014714;28;20559;-80
2023/09/28 09:44:11;;;;;;;3.15;2.88;;;;;;;;;;5016493;28;20247;-79
2023/09/28 09:46:36;;;;;;;5.28;2.90;;;;;;;;;;4991455;28;20308;-80
2023/09/28 09:49:02;;;;;;;7.15;3.10;;;;;;;;;;5000670;28;20268;-80
2023/09/28 09:51:28;;;;;;;5.40;3.13;;;;;;;;;;4986001;28;20244;-81
2023/09/28 09:53:53;;;;;;;3.25;2.78;;;;;;;;;;4992363;28;20282;-79
2023/09/28 09:56:19;;;;;;;8.82;3.00;;;;;;;;;;4984891;28;20218;-78
2023/09/28 09:58:49;;;;;;;5.45;2.90;;;;;;;;;;4972941;28;20366;-80
2023/09/28 10:01:20;;;;;;;5.35;2.90;;;;;;;;;;4988332;28;20295;-79
2023/09/28 10:03:50;;;;;;;4.43;2.47;;;;;;;;;;5022120;28;20287;-80
2023/09/28 10:06:19;;;;;;;4.00;3.10;;;;;;;;;;5002983;28;20248;-82
2023/09/28 10:08:46;;;;;;;2.95;2.65;;;;;;;;;;4972337;28;20225;-79
2023/09/28 10:11:12;;;;;;;4.88;2.90;;;;;;;;;;4977289;28;20220;-78
2023/09/28 10:13:37;;;;;;;6.40;2.72;;;;;;;;;;4998165;28;20224;-80
2023/09/28 10:16:06;;;;;;;3.67;2.47;;;;;;;;;;5008487;28;20251;-80
2023/09/28 10:18:34;;;;;;;4.43;2.55;;;;;;;;;;4987414;28;20225;-82
2023/09/28 10:20:59;;;;;;;3.38;2.42;;;;;;;;;;4995484;28;20244;-81
2023/09/28 10:23:25;;;;;;;3.00;2.10;;;;;;;;;;4962682;28;20216;-80
2023/09/28 10:26:16;;;;;;;3.63;2.45;;;;;;;;;;4986426;28;20313;-82
2023/09/28 10:29:05;;;;;;;2.40;2.20;;;;;;;;;;5003632;28;20225;-80
2023/09/28 10:31:32;;;;;;;3.05;2.17;;;;;;;;;;4975880;28;20263;-82
2023/09/28 10:33:59;;;;;;;3.30;2.30;;;;;;;;;;4956909;28;20264;-82
2023/09/28 10:36:26;;;;;;;3.58;2.28;;;;;;;;;;4997981;28;20227;-79
2023/09/28 10:39:14;;;;;;;3.22;2.20;;;;;;;;;;4987944;28;20541;-80
2023/09/28 10:41:45;;;;;;;3.03;2.08;;;;;;;;;;5005875;28;20243;-80
2023/09/28 10:44:13;;;;;;;3.45;2.50;;;;;;;;;;4987125;28;20239;-80
2023/09/28 10:46:42;;;;;;;5.47;2.33;;;;;;;;;;4987656;28;20232;-80
2023/09/28 10:49:07;;;;;;;2.97;2.15;;;;;;;;;;4987808;28;20221;-80
2023/09/28 10:51:33;;;;;;;5.13;2.58;;;;;;;;;;4975093;28;20595;-79
2023/09/28 10:54:04;;;;;;;4.15;2.25;;;;;;;;;;5020698;28;20229;-78
2023/09/28 10:56:29;;;;;;;3.05;2.30;;;;;;;;;;4987662;28;20232;-80
2023/09/28 10:58:56;;;;;;;3.55;2.10;;;;;;;;;;4998096;28;20646;-79
2023/09/28 11:01:21;;;;;;;6.47;2.53;;;;;;;;;;4989525;28;20225;-80
2023/09/28 11:03:49;;;;;;;4.22;2.17;;;;;;;;;;5006652;28;20249;-77
2023/09/28 11:06:15;;;;;;;4.50;2.60;;;;;;;;;;5005354;28;20312;-79
2023/09/28 11:08:41;;;;;;;3.80;2.30;;;;;;;;;;5008146;28;20283;-79
2023/09/28 11:11:07;;;;;;;4.43;2.40;;;;;;;;;;4994143;28;20236;-79
2023/09/28 11:13:32;;;;;;;3.55;2.38;;;;;;;;;;4992360;28;20226;-81
2023/09/28 11:16:01;;;;;;;5.25;2.50;;;;;;;;;;4980569;28;20248;-80
2023/09/28 11:18:27;;;;;;;4.20;2.60;;;;;;;;;;4989914;28;20220;-79
2023/09/28 11:20:58;;;;;;;4.50;2.70;;;;;;;;;;5008098;28;20234;-79
2023/09/28 11:23:24;;;;;;;4.10;2.60;;;;;;;;;;5004328;28;20236;-80
2023/09/28 11:25:50;;;;;;;3.10;2.47;;;;;;;;;;4996417;28;20712;-80
2023/09/28 11:28:15;;;;;;;3.67;2.70;;;;;;;;;;4995753;28;20213;-80
2023/09/28 11:30:42;;;;;;;8.25;2.70;;;;;;;;;;4989041;28;20236;-80
2023/09/28 11:33:07;;;;;;;3.50;2.45;;;;;;;;;;5021229;28;20236;-80
2023/09/28 11:35:34;;;;;;;4.25;2.50;;;;;;;;;;4993766;28;20229;-80
2023/09/28 11:38:00;;;;;;;5.40;2.72;;;;;;;;;;4982356;28;20228;-78
2023/09/28 11:40:28;;;;;;;3.30;2.95;;;;;;;;;;4979040;28;20237;-80
2023/09/28 11:42:57;;;;;;;4.55;2.85;;;;;;;;;;4990223;28;20229;-80
2023/09/28 11:45:29;;;;;;;8.57;3.10;;;;;;;;;;5010547;28;20258;-79
2023/09/28 11:47:57;;;;;;;3.95;2.80;;;;;;;;;;4977336;28;20291;-81
2023/09/28 11:50:25;;;;;;;3.55;2.80;;;;;;;;;;4984963;28;20255;-78
2023/09/28 11:52:53;;;;;;;6.10;2.97;;;;;;;;;;5000660;28;20237;-80
2023/09/28 11:55:19;;;;;;;6.78;3.20;;;;;;;;;;4988166;28;20233;-78
2023/09/28 11:57:45;;;;;;;3.85;2.70;;;;;;;;;;4993206;28;20231;-80
2023/09/28 12:00:19;;;;;;;4.78;2.97;;;;;;;;;;4985892;28;20274;-79
2023/09/28 12:02:46;;;;;;;6.70;2.75;;;;;;;;;;4987018;28;20221;-79
2023/09/28 12:05:14;;;;;;;2.92;2.45;;;;;;;;;;4984281;28;20221;-80
2023/09/28 12:07:43;;;;;;;3.50;2.67;;;;;;;;;;5000373;28;20224;-78
2023/09/28 12:10:14;;;;;;;3.40;2.67;;;;;;;;;;5000533;28;20228;-80
2023/09/28 12:12:39;;;;;;;2.85;2.40;;;;;;;;;;4984303;28;20228;-79
2023/09/28 12:15:11;;;;;;;3.83;2.72;;;;;;;;;;4972224;28;20217;-78
2023/09/28 12:17:40;;;;;;;4.95;2.63;;;;;;;;;;4986304;28;20691;-78
2023/09/28 12:20:07;;;;;;;3.05;2.67;;;;;;;;;;4965377;28;20316;-78
2023/09/28 12:22:35;;;;;;;4.38;2.47;;;;;;;;;;4987251;28;20226;-78
2023/09/28 12:25:04;;;;;;;6.38;2.90;;;;;;;;;;5009027;28;20267;-76
2023/09/28 12:27:36;;;;;;;6.78;3.00;;;;;;;;;;4983543;28;20228;-77
2023/09/28 12:30:02;;;;;;;5.50;2.65;;;;;;;;;;5017438;28;20232;-78
2023/09/28 12:32:29;;;;;;;3.65;2.58;;;;;;;;;;4985861;28;20237;-80
2023/09/28 12:34:57;;;;;;;4.50;3.03;;;;;;;;;;4986894;28;20229;-80
2023/09/28 12:37:23;;;;;;;4.22;2.80;;;;;;;;;;4975024;28;20254;-79
2023/09/28 12:39:53;;;;;;;3.00;2.50;;;;;;;;;;4986956;28;20221;-79
2023/09/28 12:42:24;;;;;;;4.45;2.70;;;;;;;;;;4992399;28;20328;-80
2023/09/28 12:44:50;;;;;;;3.22;2.70;;;;;;;;;;5010647;28;20233;-79
2023/09/28 12:47:19;;;;;;;3.10;2.45;;;;;;;;;;4972948;28;20241;-79
2023/09/28 12:49:45;;;;;;;3.13;2.45;;;;;;;;;;4984377;28;20548;-77
2023/09/28 12:52:11;;;;;;;6.53;2.60;;;;;;;;;;4983828;28;20248;-80
2023/09/28 12:54:39;;;;;;;3.50;2.50;;;;;;;;;;4982700;28;20304;-78
2023/09/28 12:57:04;;;;;;;5.72;3.03;;;;;;;;;;4959273;28;20236;-80
2023/09/28 12:59:32;;;;;;;5.20;2.47;;;;;;;;;;4960290;28;20245;-78
2023/09/28 13:01:58;;;;;;;4.13;2.50;;;;;;;;;;4984956;28;20274;-79
2023/09/28 13:04:26;;;;;;;6.32;2.83;;;;;;;;;;4984937;28;20217;-79
2023/09/28 13:06:52;;;;;;;5.55;2.65;;;;;;;;;;4999896;28;20697;-80
2023/09/28 13:09:21;;;;;;;4.05;2.67;;;;;;;;;;4988628;28;20224;-80
2023/09/28 13:11:46;;;;;;;2.85;2.55;;;;;;;;;;4990213;28;20220;-80
2023/09/28 13:14:12;;;;;;;3.88;2.50;;;;;;;;;;4991353;28;20226;-80
2023/09/28 13:16:37;;;;;;;7.82;2.50;;;;;;;;;;5019214;28;20229;-80
2023/09/28 13:19:08;;;;;;;3.88;2.80;;;;;;;;;;5000968;28;20236;-79
2023/09/28 13:21:34;;;;;;;5.47;2.50;;;;;;;;;;4993700;28;20221;-79
2023/09/28 13:24:02;;;;;;;3.45;2.60;;;;;;;;;;5015170;28;20327;-79
2023/09/28 13:26:33;;;;;;;2.85;2.45;;;;;;;;;;4990869;28;20213;-78
2023/09/28 13:28:58;;;;;;;6.10;2.72;;;;;;;;;;5005007;28;20221;-80
2023/09/28 13:31:25;;;;;;;4.90;2.30;;;;;;;;;;4976759;28;20302;-81
2023/09/28 13:33:51;;;;;;;2.50;2.25;;;;;;;;;;5006693;28;20236;-79
2023/09/28 13:36:18;;;;;;;3.00;2.30;;;;;;;;;;4984263;28;20232;-79
2023/09/28 13:38:46;;;;;;;4.07;2.72;;;;;;;;;;5007419;28;20239;-79
2023/09/28 13:41:11;;;;;;;5.70;2.67;;;;;;;;;;4963141;28;20312;-78
2023/09/28 13:43:41;;;;;;;3.17;2.50;;;;;;;;;;5001738;28;20229;-78
2023/09/28 13:46:07;;;;;;;3.55;2.38;;;;;;;;;;4976054;28;20369;-78
2023/09/28 13:48:32;;;;;;;4.38;2.42;;;;;;;;;;5006934;28;20213;-80
2023/09/28 13:50:58;;;;;;;3.38;2.53;;;;;;;;;;4990069;28;20706;-79
2023/09/28 13:53:26;;;;;;;6.15;2.63;;;;;;;;;;4984033;28;20237;-78
2023/09/28 13:55:52;;;;;;;3.03;2.28;;;;;;;;;;4975924;28;20642;-78
2023/09/28 13:58:19;;;;;;;4.55;2.65;;;;;;;;;;4971766;28;20216;-79
2023/09/28 14:00:45;;;;;;;3.63;2.80;;;;;;;;;;4988368;28;20233;-78
2023/09/28 14:03:11;;;;;;;2.63;2.10;;;;;;;;;;5000219;28;20277;-79
2023/09/28 14:05:37;;;;;;;4.53;2.78;;;;;;;;;;4988118;28;20840;-78
2023/09/28 14:08:10;;;;;;;3.88;2.75;;;;;;;;;;5018922;28;20236;-79
2023/09/28 14:10:36;;;;;;;2.63;2.42;;;;;;;;;;4989010;28;20578;-79
2023/09/28 14:13:05;;;;;;;5.63;2.70;;;;;;;;;;4977796;28;20275;-78
2023/09/28 14:15:31;;;;;;;3.20;2.75;;;;;;;;;;5005124;28;20229;-78
2023/09/28 14:17:56;;;;;;;4.32;2.63;;;;;;;;;;5015739;28;20236;-78
2023/09/28 14:20:26;;;;;;;2.80;2.17;;;;;;;;;;4995077;28;20232;-78
2023/09/28 14:22:52;;;;;;;3.30;2.47;;;;;;;;;;5009852;28;20233;-78
2023/09/28 14:25:20;;;;;;;3.33;2.63;;;;;;;;;;4989493;28;20235;-79
2023/09/28 14:27:50;;;;;;;3.50;2.47;;;;;;;;;;5014705;28;20221;-78
2023/09/28 14:30:16;;;;;;;3.47;2.80;;;;;;;;;;4989878;28;20320;-78
2023/09/28 14:32:49;;;;;;;4.55;3.03;;;;;;;;;;4999266;28;20578;-81
2023/09/28 14:35:17;;;;;;;4.72;2.85;;;;;;;;;;5004022;28;20234;-80
2023/09/28 14:37:45;;;;;;;4.35;3.03;;;;;;;;;;4981146;28;20221;-78